IGO1903 VABB-LGAV
Flight info
| Callsign | IGO1903 |
|---|---|
| Flight time | N/A |
| Altitude | 34000 |
| Route | RAXET2AXSAKUN/27 SAKUN V2 SUGID N571 PARAR M628 TULBU G652 TOKRA DCT ALROK DCT BOSOB DCT ITRUX Y511 PMA Z712 WEJ L677 CVO L617 TANSA UL617 SOREV |
| Aircraft | A21N/M-SDE2E3FGHIRWXY/LB1 |
Departure
| Time | N/A |
|---|---|
| Airport | Chhatrapati Shivaji Maharaj International Airport (VABB) |
Arrival
| Time | 2026-05-06 13:25 |
|---|---|
| Airport | Athens Eleftherios Venizelos International Airport (LGAV) |
| Time | Latitude | Longitude | Altitude | Speed | Heading |
|---|---|---|---|---|---|
| 2026-05-06 12:23 | 34.36021 | 26.60631 | 34095 ft | 432 kts | 330° |
| 2026-05-06 12:23 | 34.38714 | 26.59057 | 34095 ft | 432 kts | 330° |
| 2026-05-06 12:24 | 34.44158 | 26.55871 | 34094 ft | 432 kts | 330° |
| 2026-05-06 12:24 | 34.49563 | 26.52702 | 34095 ft | 433 kts | 330° |
| 2026-05-06 12:25 | 34.54613 | 26.49738 | 34095 ft | 433 kts | 330° |
| 2026-05-06 12:25 | 34.60299 | 26.46396 | 34096 ft | 433 kts | 330° |
| 2026-05-06 12:26 | 34.65704 | 26.43215 | 34095 ft | 433 kts | 330° |
| 2026-05-06 12:26 | 34.71087 | 26.40043 | 34095 ft | 433 kts | 330° |
| 2026-05-06 12:27 | 34.76477 | 26.36861 | 34095 ft | 433 kts | 330° |
| 2026-05-06 12:27 | 34.81652 | 26.33803 | 34097 ft | 433 kts | 330° |
| 2026-05-06 12:28 | 34.87244 | 26.30496 | 34100 ft | 432 kts | 330° |
| 2026-05-06 12:28 | 34.92281 | 26.27514 | 34101 ft | 434 kts | 330° |
| 2026-05-06 12:29 | 34.97448 | 26.24449 | 34104 ft | 436 kts | 330° |
| 2026-05-06 12:29 | 35.03338 | 26.20877 | 34108 ft | 438 kts | 327° |
| 2026-05-06 12:30 | 35.08507 | 26.17017 | 34112 ft | 436 kts | 322° |
| 2026-05-06 12:30 | 35.13326 | 26.12569 | 34116 ft | 435 kts | 318° |
| 2026-05-06 12:31 | 35.18002 | 26.08020 | 34119 ft | 435 kts | 318° |
| 2026-05-06 12:31 | 35.22700 | 26.03444 | 34120 ft | 435 kts | 318° |
| 2026-05-06 12:32 | 35.27425 | 25.98843 | 34120 ft | 435 kts | 318° |
| 2026-05-06 12:32 | 35.32121 | 25.94266 | 34120 ft | 435 kts | 318° |
| 2026-05-06 12:33 | 35.36819 | 25.89682 | 34120 ft | 435 kts | 318° |
| 2026-05-06 12:33 | 35.41509 | 25.85098 | 34120 ft | 435 kts | 318° |
| 2026-05-06 12:34 | 35.46232 | 25.80476 | 34120 ft | 435 kts | 318° |
| 2026-05-06 12:34 | 35.50870 | 25.75931 | 34120 ft | 435 kts | 318° |
| 2026-05-06 12:35 | 35.55609 | 25.71280 | 34120 ft | 435 kts | 318° |
| 2026-05-06 12:35 | 35.59523 | 25.67436 | 34120 ft | 435 kts | 318° |
| 2026-05-06 12:36 | 35.64681 | 25.62365 | 34120 ft | 435 kts | 318° |
| 2026-05-06 12:36 | 35.69338 | 25.57772 | 34120 ft | 435 kts | 318° |
| 2026-05-06 12:37 | 35.73373 | 25.53780 | 34120 ft | 435 kts | 318° |
| 2026-05-06 12:37 | 35.78574 | 25.48632 | 34120 ft | 435 kts | 318° |
| 2026-05-06 12:38 | 35.82612 | 25.44637 | 34120 ft | 435 kts | 318° |
| 2026-05-06 12:38 | 35.87906 | 25.39395 | 34120 ft | 436 kts | 318° |
| 2026-05-06 12:39 | 35.92612 | 25.34722 | 34120 ft | 435 kts | 317° |
| 2026-05-06 12:39 | 35.97311 | 25.30031 | 34120 ft | 435 kts | 317° |
| 2026-05-06 12:40 | 36.01983 | 25.25363 | 34120 ft | 435 kts | 317° |
| 2026-05-06 12:40 | 36.06688 | 25.20662 | 34120 ft | 435 kts | 317° |
| 2026-05-06 12:41 | 36.11405 | 25.15945 | 34120 ft | 435 kts | 317° |
| 2026-05-06 12:41 | 36.16122 | 25.11222 | 34120 ft | 435 kts | 317° |
| 2026-05-06 12:42 | 36.20829 | 25.06499 | 34120 ft | 435 kts | 317° |
| 2026-05-06 12:42 | 36.24861 | 25.02450 | 34113 ft | 435 kts | 317° |
| 2026-05-06 12:43 | 36.30110 | 24.97169 | 34103 ft | 435 kts | 317° |
| 2026-05-06 12:43 | 36.34751 | 24.92491 | 34098 ft | 436 kts | 317° |
| 2026-05-06 12:44 | 36.39444 | 24.87754 | 34096 ft | 436 kts | 317° |
| 2026-05-06 12:44 | 36.44047 | 24.83101 | 34095 ft | 436 kts | 317° |
| 2026-05-06 12:45 | 36.48649 | 24.78451 | 34095 ft | 436 kts | 317° |
| 2026-05-06 12:45 | 36.53355 | 24.73771 | 33241 ft | 440 kts | 318° |
| 2026-05-06 12:46 | 36.55738 | 24.71401 | 32203 ft | 448 kts | 318° |
| 2026-05-06 12:46 | 36.58178 | 24.68976 | 31184 ft | 453 kts | 318° |
| 2026-05-06 12:46 | 36.60571 | 24.66599 | 30265 ft | 456 kts | 318° |
| 2026-05-06 12:46 | 36.63035 | 24.64149 | 29346 ft | 457 kts | 318° |
| 2026-05-06 12:47 | 36.64904 | 24.62290 | 28634 ft | 458 kts | 318° |
| 2026-05-06 12:47 | 36.67902 | 24.59306 | 27457 ft | 461 kts | 318° |
| 2026-05-06 12:47 | 36.69813 | 24.57402 | 26856 ft | 458 kts | 318° |
| 2026-05-06 12:47 | 36.72776 | 24.54450 | 26076 ft | 451 kts | 319° |
| 2026-05-06 12:48 | 36.74800 | 24.52432 | 25575 ft | 446 kts | 319° |
| 2026-05-06 12:48 | 36.77494 | 24.49744 | 24920 ft | 440 kts | 319° |
| 2026-05-06 12:48 | 36.79867 | 24.47372 | 24336 ft | 434 kts | 319° |
| 2026-05-06 12:48 | 36.81920 | 24.45319 | 23839 ft | 430 kts | 319° |
| 2026-05-06 12:49 | 36.84443 | 24.42792 | 23223 ft | 425 kts | 319° |
| 2026-05-06 12:49 | 36.86725 | 24.40504 | 22666 ft | 420 kts | 319° |
| 2026-05-06 12:49 | 36.89006 | 24.38216 | 22100 ft | 416 kts | 319° |
| 2026-05-06 12:49 | 36.91250 | 24.35962 | 21540 ft | 412 kts | 319° |
| 2026-05-06 12:50 | 36.93454 | 24.33747 | 20998 ft | 408 kts | 318° |
| 2026-05-06 12:50 | 36.95622 | 24.31567 | 20461 ft | 404 kts | 318° |
| 2026-05-06 12:50 | 36.97786 | 24.29389 | 19913 ft | 401 kts | 318° |
| 2026-05-06 12:50 | 36.99937 | 24.27221 | 19357 ft | 397 kts | 318° |
| 2026-05-06 12:51 | 37.02049 | 24.25091 | 18808 ft | 395 kts | 319° |
| 2026-05-06 12:51 | 37.04158 | 24.22961 | 18255 ft | 392 kts | 319° |
| 2026-05-06 12:51 | 37.06252 | 24.20846 | 17712 ft | 389 kts | 319° |
| 2026-05-06 12:51 | 37.08242 | 24.18836 | 17196 ft | 386 kts | 319° |
| 2026-05-06 12:52 | 37.10348 | 24.16707 | 16644 ft | 384 kts | 320° |
| 2026-05-06 12:52 | 37.12453 | 24.14577 | 16102 ft | 381 kts | 320° |
| 2026-05-06 12:52 | 37.13976 | 24.13037 | 15712 ft | 379 kts | 320° |
| 2026-05-06 12:52 | 37.16374 | 24.10611 | 15091 ft | 376 kts | 320° |
| 2026-05-06 12:53 | 37.18444 | 24.08514 | 14562 ft | 373 kts | 320° |
| 2026-05-06 12:53 | 37.19876 | 24.07062 | 14193 ft | 371 kts | 320° |
| 2026-05-06 12:53 | 37.22345 | 24.04558 | 13552 ft | 367 kts | 320° |
| 2026-05-06 12:53 | 37.24313 | 24.02559 | 13044 ft | 365 kts | 320° |
| 2026-05-06 12:54 | 37.25614 | 24.01237 | 12705 ft | 363 kts | 320° |
| 2026-05-06 12:54 | 37.28114 | 23.98696 | 12051 ft | 360 kts | 320° |
| 2026-05-06 12:54 | 37.30054 | 23.96722 | 11546 ft | 357 kts | 320° |
| 2026-05-06 12:54 | 37.31383 | 23.95370 | 11197 ft | 356 kts | 320° |
| 2026-05-06 12:55 | 37.33394 | 23.93323 | 10845 ft | 346 kts | 320° |
| 2026-05-06 12:55 | 37.35372 | 23.91308 | 10669 ft | 331 kts | 320° |
| 2026-05-06 12:55 | 37.36843 | 23.89809 | 10527 ft | 321 kts | 320° |
| 2026-05-06 12:55 | 37.38887 | 23.87723 | 10327 ft | 306 kts | 320° |
| 2026-05-06 12:56 | 37.39918 | 23.86673 | 10230 ft | 299 kts | 320° |
| 2026-05-06 12:56 | 37.43885 | 23.82691 | 9853 ft | 290 kts | 321° |
| 2026-05-06 12:56 | 37.45248 | 23.81327 | 9612 ft | 287 kts | 321° |
| 2026-05-06 12:57 | 37.46965 | 23.79610 | 9132 ft | 287 kts | 321° |
| 2026-05-06 12:57 | 37.48132 | 23.78446 | 8819 ft | 287 kts | 321° |
| 2026-05-06 12:57 | 37.49978 | 23.76606 | 8341 ft | 285 kts | 321° |
| 2026-05-06 12:57 | 37.51452 | 23.75138 | 7962 ft | 283 kts | 321° |
| 2026-05-06 12:58 | 37.53018 | 23.73582 | 7567 ft | 282 kts | 321° |
| 2026-05-06 12:58 | 37.54444 | 23.72166 | 7184 ft | 281 kts | 321° |
| 2026-05-06 12:58 | 37.56111 | 23.70515 | 6766 ft | 279 kts | 321° |
| 2026-05-06 12:58 | 37.57620 | 23.69022 | 6375 ft | 277 kts | 321° |
| 2026-05-06 12:59 | 37.59109 | 23.67552 | 5973 ft | 276 kts | 321° |
| 2026-05-06 12:59 | 37.60276 | 23.66401 | 5667 ft | 276 kts | 321° |
| 2026-05-06 12:59 | 37.62079 | 23.64625 | 5195 ft | 274 kts | 321° |
| 2026-05-06 12:59 | 37.63572 | 23.63157 | 5065 ft | 272 kts | 321° |
| 2026-05-06 13:00 | 37.64648 | 23.62101 | 5063 ft | 273 kts | 321° |
| 2026-05-06 13:00 | 37.66475 | 23.60308 | 5060 ft | 274 kts | 321° |
| 2026-05-06 13:00 | 37.67545 | 23.59258 | 5059 ft | 273 kts | 321° |
| 2026-05-06 13:00 | 37.69498 | 23.57342 | 5057 ft | 274 kts | 321° |
| 2026-05-06 13:01 | 37.70819 | 23.56046 | 5055 ft | 274 kts | 321° |
| 2026-05-06 13:01 | 37.72646 | 23.54694 | 5041 ft | 277 kts | 343° |
| 2026-05-06 13:01 | 37.74530 | 23.54538 | 5046 ft | 279 kts | 10° |
| 2026-05-06 13:01 | 37.76321 | 23.55507 | 5047 ft | 280 kts | 38° |
| 2026-05-06 13:02 | 37.77640 | 23.57220 | 5056 ft | 280 kts | 52° |
| 2026-05-06 13:02 | 37.78836 | 23.59203 | 5053 ft | 280 kts | 54° |
| 2026-05-06 13:02 | 37.79988 | 23.61208 | 5052 ft | 280 kts | 55° |
| 2026-05-06 13:02 | 37.81101 | 23.62891 | 5044 ft | 280 kts | 42° |
| 2026-05-06 13:03 | 37.82749 | 23.64548 | 5052 ft | 280 kts | 36° |
| 2026-05-06 13:03 | 37.84316 | 23.65952 | 5054 ft | 280 kts | 35° |
| 2026-05-06 13:03 | 37.85954 | 23.67400 | 5056 ft | 280 kts | 35° |
| 2026-05-06 13:03 | 37.87546 | 23.68802 | 5058 ft | 280 kts | 34° |
| 2026-05-06 13:04 | 37.89155 | 23.70220 | 5059 ft | 280 kts | 34° |
| 2026-05-06 13:04 | 37.90743 | 23.71612 | 5061 ft | 280 kts | 34° |
| 2026-05-06 13:04 | 37.92318 | 23.72991 | 5062 ft | 280 kts | 34° |
| 2026-05-06 13:04 | 37.93808 | 23.74302 | 5064 ft | 280 kts | 34° |
| 2026-05-06 13:05 | 37.95465 | 23.75762 | 5065 ft | 280 kts | 34° |
| 2026-05-06 13:05 | 37.97039 | 23.77145 | 5065 ft | 280 kts | 34° |
| 2026-05-06 13:05 | 37.98637 | 23.78547 | 5065 ft | 280 kts | 35° |
| 2026-05-06 13:05 | 38.00124 | 23.79932 | 5065 ft | 280 kts | 37° |
| 2026-05-06 13:06 | 38.01527 | 23.81289 | 5064 ft | 280 kts | 38° |
| 2026-05-06 13:06 | 38.03224 | 23.82953 | 5063 ft | 280 kts | 38° |
| 2026-05-06 13:06 | 38.04768 | 23.84473 | 5062 ft | 280 kts | 38° |
| 2026-05-06 13:06 | 38.06316 | 23.85990 | 5061 ft | 280 kts | 38° |
| 2026-05-06 13:07 | 38.07855 | 23.87495 | 5058 ft | 276 kts | 38° |
| 2026-05-06 13:07 | 38.09078 | 23.88694 | 5055 ft | 263 kts | 38° |
| 2026-05-06 13:07 | 38.10670 | 23.90260 | 5050 ft | 244 kts | 37° |
| 2026-05-06 13:07 | 38.11917 | 23.91495 | 5049 ft | 233 kts | 38° |
| 2026-05-06 13:08 | 38.13173 | 23.92738 | 5051 ft | 225 kts | 38° |
| 2026-05-06 13:08 | 38.14409 | 23.93989 | 5055 ft | 225 kts | 44° |
| 2026-05-06 13:08 | 38.15340 | 23.95552 | 5059 ft | 225 kts | 60° |
| 2026-05-06 13:08 | 38.16081 | 23.97323 | 5065 ft | 225 kts | 64° |
| 2026-05-06 13:09 | 38.16773 | 23.99095 | 5065 ft | 224 kts | 65° |
| 2026-05-06 13:09 | 38.17413 | 24.00899 | 5061 ft | 225 kts | 75° |
| 2026-05-06 13:09 | 38.17494 | 24.02836 | 5091 ft | 218 kts | 98° |
| 2026-05-06 13:09 | 38.17079 | 24.04566 | 5124 ft | 196 kts | 121° |
| 2026-05-06 13:10 | 38.16349 | 24.05963 | 5052 ft | 179 kts | 128° |
| 2026-05-06 13:10 | 38.15484 | 24.07002 | 4843 ft | 167 kts | 160° |
| 2026-05-06 13:10 | 38.14547 | 24.07243 | 4658 ft | 157 kts | 179° |
| 2026-05-06 13:10 | 38.13328 | 24.07243 | 4338 ft | 153 kts | 184° |
| 2026-05-06 13:11 | 38.12278 | 24.07187 | 4066 ft | 158 kts | 185° |
| 2026-05-06 13:11 | 38.11061 | 24.07109 | 4011 ft | 184 kts | 185° |
| 2026-05-06 13:11 | 38.09786 | 24.07023 | 3886 ft | 181 kts | 185° |
| 2026-05-06 13:11 | 38.08581 | 24.06840 | 3746 ft | 168 kts | 196° |
| 2026-05-06 13:12 | 38.07558 | 24.06319 | 3644 ft | 151 kts | 208° |
| 2026-05-06 13:12 | 38.06658 | 24.05636 | 3507 ft | 148 kts | 215° |
| 2026-05-06 13:12 | 38.05809 | 24.04878 | 3415 ft | 154 kts | 217° |
| 2026-05-06 13:12 | 38.04910 | 24.04031 | 3798 ft | 160 kts | 217° |
| 2026-05-06 13:13 | 38.03989 | 24.03164 | 4006 ft | 176 kts | 217° |
| 2026-05-06 13:13 | 38.02948 | 24.02181 | 3958 ft | 195 kts | 218° |
| 2026-05-06 13:13 | 38.01827 | 24.01111 | 3986 ft | 206 kts | 218° |
| 2026-05-06 13:13 | 38.00691 | 24.00024 | 3999 ft | 207 kts | 217° |
| 2026-05-06 13:14 | 37.99529 | 23.98916 | 3952 ft | 216 kts | 217° |
| 2026-05-06 13:14 | 37.98303 | 23.97751 | 3973 ft | 221 kts | 217° |
| 2026-05-06 13:14 | 37.97072 | 23.96580 | 3992 ft | 222 kts | 217° |
| 2026-05-06 13:14 | 37.95846 | 23.95411 | 4000 ft | 222 kts | 217° |
| 2026-05-06 13:15 | 37.94728 | 23.94064 | 3989 ft | 222 kts | 239° |
| 2026-05-06 13:15 | 37.94306 | 23.92199 | 3998 ft | 224 kts | 271° |
| 2026-05-06 13:15 | 37.94768 | 23.90336 | 4002 ft | 227 kts | 304° |
| 2026-05-06 13:15 | 37.95965 | 23.89082 | 4005 ft | 231 kts | 336° |
| 2026-05-06 13:16 | 37.97462 | 23.88460 | 4011 ft | 232 kts | 343° |
| 2026-05-06 13:16 | 37.98840 | 23.88007 | 4007 ft | 233 kts | 345° |
| 2026-05-06 13:16 | 38.00570 | 23.87642 | 3995 ft | 235 kts | 4° |
| 2026-05-06 13:16 | 38.02077 | 23.88228 | 4005 ft | 237 kts | 28° |
| 2026-05-06 13:17 | 38.03474 | 23.89331 | 4005 ft | 237 kts | 34° |
| 2026-05-06 13:17 | 38.04841 | 23.90538 | 4003 ft | 237 kts | 34° |
| 2026-05-06 13:17 | 38.06204 | 23.91758 | 4001 ft | 237 kts | 35° |
| 2026-05-06 13:17 | 38.07525 | 23.92943 | 4000 ft | 237 kts | 35° |
| 2026-05-06 13:18 | 38.08884 | 23.94152 | 4000 ft | 237 kts | 35° |
| 2026-05-06 13:18 | 38.10193 | 23.95316 | 4000 ft | 237 kts | 35° |
| 2026-05-06 13:18 | 38.11577 | 23.96550 | 4001 ft | 237 kts | 34° |
| 2026-05-06 13:18 | 38.12904 | 23.97743 | 4001 ft | 234 kts | 34° |
| 2026-05-06 13:19 | 38.14008 | 23.98915 | 3975 ft | 222 kts | 53° |
| 2026-05-06 13:19 | 38.14684 | 24.00570 | 4009 ft | 219 kts | 70° |
| 2026-05-06 13:19 | 38.15155 | 24.02524 | 4067 ft | 198 kts | 82° |
| 2026-05-06 13:19 | 38.14936 | 24.04172 | 4003 ft | 189 kts | 123° |
| 2026-05-06 13:20 | 38.13967 | 24.05231 | 4015 ft | 189 kts | 158° |
| 2026-05-06 13:20 | 38.12740 | 24.05875 | 4018 ft | 190 kts | 159° |
| 2026-05-06 13:20 | 38.11518 | 24.06513 | 3898 ft | 189 kts | 163° |
| 2026-05-06 13:20 | 38.10212 | 24.06739 | 3772 ft | 187 kts | 181° |
| 2026-05-06 13:21 | 38.08920 | 24.06692 | 3647 ft | 187 kts | 186° |
| 2026-05-06 13:21 | 38.07649 | 24.06303 | 3418 ft | 185 kts | 204° |
| 2026-05-06 13:21 | 38.06515 | 24.05530 | 3165 ft | 184 kts | 213° |
| 2026-05-06 13:21 | 38.05477 | 24.04601 | 2912 ft | 183 kts | 218° |
| 2026-05-06 13:22 | 38.04464 | 24.03620 | 2662 ft | 182 kts | 218° |
| 2026-05-06 13:22 | 38.03457 | 24.02645 | 2415 ft | 181 kts | 217° |
| 2026-05-06 13:22 | 38.02458 | 24.01689 | 2173 ft | 178 kts | 216° |
| 2026-05-06 13:22 | 38.01511 | 24.00789 | 1972 ft | 161 kts | 216° |
| 2026-05-06 13:23 | 38.00665 | 23.99987 | 1745 ft | 145 kts | 218° |
| 2026-05-06 13:23 | 37.99863 | 23.99224 | 1551 ft | 143 kts | 217° |
| 2026-05-06 13:23 | 37.99070 | 23.98469 | 1368 ft | 142 kts | 216° |
| 2026-05-06 13:23 | 37.98286 | 23.97724 | 1187 ft | 142 kts | 217° |
| 2026-05-06 13:24 | 37.97494 | 23.96969 | 995 ft | 141 kts | 216° |
| 2026-05-06 13:24 | 37.96721 | 23.96212 | 800 ft | 141 kts | 217° |
| 2026-05-06 13:24 | 37.95924 | 23.95483 | 600 ft | 140 kts | 217° |
| 2026-05-06 13:24 | 37.95165 | 23.94755 | 392 ft | 135 kts | 219° |
| 2026-05-06 13:25 | 37.94426 | 23.94054 | 273 ft | 126 kts | 218° |
| 2026-05-06 13:25 | 37.93838 | 23.93496 | 265 ft | 81 kts | 217° |
| 2026-05-06 13:25 | 37.93518 | 23.93206 | 261 ft | 30 kts | 206° |
| 2026-05-06 13:25 | 37.93325 | 23.93132 | 258 ft | 28 kts | 187° |
| 2026-05-06 13:26 | 37.93184 | 23.93112 | 255 ft | 14 kts | 182° |
| 2026-05-06 13:26 | 37.93162 | 23.93116 | 255 ft | 0 kts | 129° |
| 2026-05-06 13:26 | 37.93165 | 23.93128 | 255 ft | 3 kts | 55° |
| 2026-05-06 13:26 | 37.93211 | 23.93177 | 256 ft | 12 kts | 36° |
| 2026-05-06 13:27 | 37.93294 | 23.93255 | 257 ft | 15 kts | 36° |
| 2026-05-06 13:27 | 37.93379 | 23.93335 | 259 ft | 14 kts | 36° |
| 2026-05-06 13:27 | 37.93423 | 23.93434 | 260 ft | 13 kts | 102° |
| 2026-05-06 13:27 | 37.93370 | 23.93536 | 259 ft | 14 kts | 127° |
| 2026-05-06 13:28 | 37.93305 | 23.93644 | 258 ft | 15 kts | 127° |
| 2026-05-06 13:28 | 37.93239 | 23.93756 | 258 ft | 15 kts | 127° |
| 2026-05-06 13:28 | 37.93174 | 23.93864 | 259 ft | 14 kts | 127° |
| 2026-05-06 13:28 | 37.93120 | 23.93954 | 264 ft | 10 kts | 127° |
| 2026-05-06 13:29 | 37.93093 | 23.94025 | 267 ft | 7 kts | 89° |
| 2026-05-06 13:29 | 37.93122 | 23.94078 | 268 ft | 7 kts | 38° |
| 2026-05-06 13:29 | 37.93156 | 23.94111 | 269 ft | 5 kts | 37° |
| 2026-05-06 13:29 | 37.93181 | 23.94135 | 270 ft | 4 kts | 37° |
| 2026-05-06 13:30 | 37.93213 | 23.94166 | 271 ft | 7 kts | 38° |
| 2026-05-06 13:30 | 37.93263 | 23.94216 | 273 ft | 10 kts | 43° |
| 2026-05-06 13:30 | 37.93274 | 23.94302 | 278 ft | 10 kts | 119° |
| 2026-05-06 13:30 | 37.93224 | 23.94387 | 281 ft | 13 kts | 126° |
| 2026-05-06 13:31 | 37.93174 | 23.94474 | 283 ft | 9 kts | 124° |
| 2026-05-06 13:31 | 37.93171 | 23.94543 | 285 ft | 6 kts | 65° |
| 2026-05-06 13:31 | 37.93196 | 23.94585 | 287 ft | 6 kts | 45° |
| 2026-05-06 13:31 | 37.93236 | 23.94626 | 289 ft | 8 kts | 37° |
| 2026-05-06 13:32 | 37.93283 | 23.94671 | 292 ft | 8 kts | 37° |
| 2026-05-06 13:32 | 37.93341 | 23.94727 | 294 ft | 11 kts | 37° |
| 2026-05-06 13:32 | 37.93410 | 23.94792 | 296 ft | 12 kts | 37° |
| 2026-05-06 13:32 | 37.93474 | 23.94853 | 296 ft | 7 kts | 37° |
| 2026-05-06 13:33 | 37.93515 | 23.94871 | 296 ft | 5 kts | 330° |
| 2026-05-06 13:33 | 37.93533 | 23.94844 | 297 ft | 2 kts | 303° |
| 2026-05-06 13:33 | 37.93537 | 23.94836 | 297 ft | 0 kts | 306° |
| 2026-05-06 13:33 | 37.93541 | 23.94830 | 297 ft | 2 kts | 306° |
| 2026-05-06 13:34 | 37.93557 | 23.94803 | 297 ft | 0 kts | 306° |